メインページ
METAR-TAF:

METAR-TAF

空港 :

オールバニ, ニューヨーク, アメリカ合衆国

緯度: 42-44-53N, 経度: 073-48-06W, 海抜: 87m

現時点の気象観測

当レポートは44分前の18:51(UTC)に作成
南/南西の風 6kt
気温 32°C
湿度 59%
気圧 1009 hPa
視程: 16.1km
高度5500ftの雲はほとんどない
高度6500ftの雲は散在している
高度25000ftの雲は散在している

METAR: KALB 191851Z 20006KT 10SM FEW055 SCT065 SCT250 32/23 A2981 RMK AO2 SLP093 T03220233

時間: 15:35 (19:35 UTC)

予報

当レポートは2時間9分前の17:26(UTC)に作成
予報は19日の 18時(UTC)から 20日の 18時(UTC)まで有効
の風 10kt、最大16ktの突風を伴う
視程: 10km
高度3000ftの雲はほとんどない
高度5000ftの雲は散在している
20日の 0000時(UTC)から
南西の風 6kt
視程: 10km
高度4500ftの雲は散在している
高度12000ftの千切れ雲あり
20日の 00時(UTC)から 20日の 04時(UTC)まで一時的に
視程: 4.8km
高度2500ftの曇り, 積乱雲.
激しい雷雨, 雨, 靄
20日の 0700時(UTC)から
南/南西の風 3kt
視程: 10km
高度1500ftの雲は散在している
高度3000ftの雲は散在している
高度12000ftの雲は散在している
20日の 10時(UTC)から 20日の 14時(UTC)まで一時的に
高度3000ftの千切れ雲あり

TAF: KALB 191726Z 1918/2018 18010G16KT P6SM FEW030 SCT050 FM200000 23006KT P6SM SCT045 BKN120 TEMPO 2000/2004 3SM TSRA BR OVC025CB FM200700 21003KT P6SM SCT015 SCT030 SCT120 TEMPO 2010/2014 BKN030

4,000以上の空港の気象観測と天気予報(METAR報とTAF報)

利用可能な観測所は地図上に黄色い丸と赤い丸で示す。

丸の上にカーソルを重ねると観測所名を参照できる。

次にクリックすると気象観測と天気予報を参照できる。

マップの切り替え:黒色「×」印の緑ボタンをクリックして拡大、「-」印の緑ボタンをクリックして縮小、緑色の三角印をクリックして隣りの地図に切り替え


METAR-TAF: